createdAt,value
2023-03-19T00:13:04.160Z,5.39
2023-03-19T00:28:04.378Z,5.27
2023-03-19T00:43:04.468Z,5.07
2023-03-19T00:58:04.792Z,5.03
2023-03-19T01:13:04.763Z,4.69
2023-03-19T01:28:05.797Z,4.58
2023-03-19T01:43:05.976Z,4.51
2023-03-19T01:58:06.119Z,4.37
2023-03-19T02:13:07.166Z,4.33
2023-03-19T02:28:08.275Z,4.51
2023-03-19T02:43:08.889Z,4.73
2023-03-19T02:58:09.906Z,4.88
2023-03-19T03:13:10.059Z,4.97
2023-03-19T03:28:11.093Z,5.33
2023-03-19T03:43:11.265Z,5.43
2023-03-19T03:58:11.888Z,5.81
2023-03-19T04:13:11.914Z,5.91
2023-03-19T04:28:11.574Z,6.01
2023-03-19T04:43:12.186Z,6.17
2023-03-19T04:58:12.781Z,6.46
2023-03-19T05:13:13.787Z,6.69
2023-03-19T05:28:14.433Z,6.91
2023-03-19T05:43:14.665Z,6.98
2023-03-19T05:58:15.618Z,6.97
2023-03-19T06:13:15.743Z,7.10
2023-03-19T06:28:16.429Z,7.15
2023-03-19T06:43:17.401Z,7.35
2023-03-19T06:58:18.559Z,7.49
2023-03-19T07:13:19.210Z,7.61
2023-03-19T07:28:19.790Z,7.75
2023-03-19T07:43:22.863Z,8.10
2023-03-19T07:58:24.030Z,8.33
2023-03-19T08:13:24.970Z,8.68
2023-03-19T08:28:25.576Z,8.89
2023-03-19T08:43:25.287Z,9.08
2023-03-19T08:58:26.454Z,9.31
2023-03-19T09:13:27.510Z,9.36
2023-03-19T09:28:28.141Z,9.60
2023-03-19T09:43:28.239Z,9.87
2023-03-19T09:58:28.266Z,10.23
2023-03-19T10:13:29.013Z,10.79
2023-03-19T10:28:29.104Z,11.22
2023-03-19T10:43:29.912Z,11.73
2023-03-19T10:58:30.699Z,12.23
2023-03-19T11:13:30.812Z,12.67
2023-03-19T11:28:31.284Z,13.17
2023-03-19T11:43:31.530Z,13.38
2023-03-19T11:58:31.636Z,13.85
2023-03-19T12:13:32.086Z,14.00
2023-03-19T12:28:31.805Z,14.28
2023-03-19T12:43:32.447Z,15.54
2023-03-19T12:58:33.513Z,16.70
2023-03-19T13:13:33.708Z,17.04
2023-03-19T13:28:33.354Z,17.01
2023-03-19T13:43:33.943Z,17.04
2023-03-19T13:58:33.976Z,17.33
2023-03-19T14:13:34.143Z,17.40
2023-03-19T14:28:34.801Z,17.72
2023-03-19T14:43:35.354Z,18.33
2023-03-19T14:58:35.863Z,18.25
2023-03-19T15:13:35.488Z,17.72
2023-03-19T15:28:38.247Z,17.46
2023-03-19T15:43:39.503Z,17.07
2023-03-19T15:58:40.322Z,16.75
2023-03-19T16:13:40.865Z,16.56
2023-03-19T16:28:44.100Z,16.25
2023-03-19T16:43:45.718Z,15.86
2023-03-19T16:58:45.830Z,14.96
2023-03-19T17:13:45.976Z,13.95
2023-03-19T17:28:46.178Z,13.01
2023-03-19T17:43:46.402Z,12.20
2023-03-19T17:58:48.602Z,11.61
2023-03-19T18:13:50.888Z,11.09
2023-03-19T18:28:51.393Z,10.60
2023-03-19T18:43:52.247Z,10.26
2023-03-19T18:58:52.923Z,9.94
2023-03-19T19:13:56.153Z,9.60
2023-03-19T19:28:57.500Z,9.50
2023-03-19T19:43:58.238Z,9.32
2023-03-19T19:58:58.495Z,9.29
2023-03-19T20:13:59.050Z,9.28
2023-03-19T20:28:59.950Z,9.18
2023-03-19T20:44:00.366Z,9.23
2023-03-19T20:59:00.419Z,9.26
2023-03-19T21:14:00.521Z,9.21
2023-03-19T21:29:00.690Z,9.32
2023-03-19T21:44:01.353Z,9.51
2023-03-19T21:59:01.983Z,9.48
2023-03-19T22:14:02.992Z,9.15
2023-03-19T22:29:03.660Z,8.63
2023-03-19T22:44:03.864Z,8.15
2023-03-19T22:59:04.137Z,7.87
2023-03-19T23:14:04.983Z,7.35
2023-03-19T23:29:07.050Z,6.94
2023-03-19T23:44:07.171Z,6.69
2023-03-19T23:59:07.435Z,6.44
